Nearby METAR Reports

METAR is the scheduled surface weather observation taken hourly at civil and military airport locations.

METAR is an acronym from the French language and roughly translates as Aviation Routine Weather Report.

 

EGPL - Benbecula Island, United Kingdom
Distance from station: WNW 41mi, 66km
Updated: 22/01/2018 11:20
Light rain, Showers, Mostly cloudy
Light rain, Showers, Mostly cloudy
 Wind from W
Wind: W 22 mph , 35 km/h
Temperature: 8°C
Wind Chill: 3°C
Dew Point: 5°C
Humidity: 82%
Barometer: 1001 hPa
Summary: Light rain, Showers
Clouds: Mostly cloudy
Visibility: 6 miles , 10 km
Cloud details: Few Clouds 305 m
Partly cloudy 488 m
Mostly cloudy 853 m
2018/01/22 11:20 EGPL 221120Z 26019KT 9999 -SHRA FEW010 SCT016 BKN028 08/05 Q1001
EGPU - Tiree Island, United Kingdom
Distance from station: SSW 56mi, 90km
Updated: 22/01/2018 11:20
Partly cloudy
Partly cloudy
 Wind from W
Wind: W 23 mph , 37 km/h
Temperature: 8°C
Wind Chill: 3°C
Dew Point: 5°C
Humidity: 82%
Barometer: 1003 hPa
Clouds: Partly cloudy
Visibility: 6 miles , 10 km
Cloud details: Few Clouds 823 m
Partly cloudy 1311 m
2018/01/22 11:20 EGPU 221120Z 26020KT 9999 FEW027 SCT043 08/05 Q1003
 
EGEO - Oban Airport, United Kingdom
Distance from station: SE 65mi, 105km
Updated: 19/01/2018 15:50
NOT Current
Nearby showers, Partly cloudy
Nearby showers, Partly cloudy
 Wind from SW
Wind: SW 7 mph , 11 km/h
Temperature: 1°C
Wind Chill: -2°C
Dew Point: 1°C
Humidity: 100%
Barometer: 998 hPa
Summary: Nearby Showers
Clouds: Partly cloudy
Visibility: 6 miles , 10 km
Cloud details: Few Clouds 549 m
Partly cloudy 1067 m
2018/01/19 15:50 EGEO 191550Z 23006KT 9999 VCSH FEW018 SCT035CB 01/01 Q0998
EGPO - Stornoway, United Kingdom
Distance from station: 0 66mi, 106km
Updated: 22/01/2018 11:20
Light rain, Showers, Mostly cloudy
Light rain, Showers, Mostly cloudy
 Wind from SW
Wind: SW 10 mph , 17 km/h
Temperature: 7°C
Wind Chill: 4°C
Dew Point: 5°C
Humidity: 87%
Barometer: 998 hPa
Summary: Light rain, Showers
Clouds: Mostly cloudy
Visibility: 6 miles , 10 km
Cloud details: Few Clouds 549 m
Mostly cloudy 732 m
2018/01/22 11:20 EGPO 221120Z 23009KT 9999 -SHRA FEW018 BKN024 07/05 Q0998
 
EGPE - Inverness/Dalcro, United Kingdom
Distance from station: ENE 88mi, 141km
Updated: 22/01/2018 11:20
Nearby showers, Mostly cloudy
Nearby showers, Mostly cloudy
 Wind from WSW
Wind: WSW 17 mph , 28 km/h
Temperature: 6°C
Wind Chill: 2°C
Dew Point: 5°C
Humidity: 93%
Barometer: 1000 hPa
Summary: Nearby Showers
Clouds: Mostly cloudy
Visibility: 6 miles , 10 km
Cloud details: Few Clouds 457 m
Mostly cloudy 945 m
2018/01/22 11:20 EGPE 221120Z 24015KT 9999 VCSH FEW015 BKN031 06/05 Q1000
EGQA - Tain Range (saws, United Kingdom
Distance from station: ENE 97mi, 156km
Updated: 22/01/2018 10:50
Partly cloudy
Partly cloudy
 Wind from SSW
Wind: SSW 12 mph , 19 km/h
Clouds: Partly cloudy
Visibility: 6 miles , 10 km
Cloud details: Few Clouds 671 m
Partly cloudy 914 m
2018/01/22 10:50 EGQA 221050Z 20010KT 9999 FEW022 SCT030 05/// Q0999 BLU
 
EGQK - Kinloss Raf, United Kingdom
Distance from station: ENE 107mi, 171km
Updated: 22/01/2018 10:50
Mostly cloudy
Mostly cloudy
 Wind from SW
Wind: SW 16 mph , 26 km/h
Temperature: 7°C
Wind Chill: 3°C
Dew Point: 3°C
Humidity: 76%
Barometer: 998 hPa
Clouds: Mostly cloudy
Visibility: 6 miles , 10 km
Cloud details: Mostly cloudy 2438 m
2018/01/22 10:50 EGQK 221050Z AUTO 23014KT 9999 BKN080/// 07/03 Q0998
EGPI - Islay/Port Ellen, United Kingdom
Distance from station: S 110mi, 177km
Updated: 22/01/2018 11:20
Light rain, Drizzle, Mostly cloudy
Light rain, Drizzle, Mostly cloudy
 Wind from W
Wind: W 20 mph , 31 km/h
Temperature: 8°C
Wind Chill: 3°C
Dew Point: 6°C
Humidity: 87%
Barometer: 1006 hPa
Summary: Light rain, Drizzle
Clouds: Mostly cloudy
Visibility: 4 miles , 6 km
Cloud details: Few Clouds 823 m
Mostly cloudy 1097 m
2018/01/22 11:20 EGPI 221120Z 27017KT 6000 -RADZ FEW027 BKN036 08/06 Q1006
 
EGQS - Lossiemouth Raf, United Kingdom
Distance from station: ENE 117mi, 188km
Updated: 22/01/2018 10:50
Clear
Clear
 Wind from WSW
Wind: WSW 13 mph , 20 km/h
Temperature: 7°C
Wind Chill: 4°C
Dew Point: 3°C
Humidity: 76%
Barometer: 998 hPa
Summary: Clear
Visibility: greater than 7 miles , 10 km
2018/01/22 10:50 EGQS 221050Z 24011KT CAVOK 07/03 Q0998 BLU NOSIG
EGPF - Glasgow Airport, United Kingdom
Distance from station: SE 121mi, 195km
Updated: 22/01/2018 11:20
Light rain, Mostly cloudy
Light rain, Mostly cloudy
 Wind from WSW
Wind: WSW 14 mph , 22 km/h
Temperature: 7°C
Wind Chill: 4°C
Dew Point: 5°C
Humidity: 87%
Barometer: 1005 hPa
Summary: Light rain
Clouds: Mostly cloudy
Visibility: 6 miles , 10 km
Cloud details: Partly cloudy 792 m
Mostly cloudy 945 m
2018/01/22 11:20 EGPF 221120Z AUTO 24012KT 9999 -RA SCT026 BKN031 07/05 Q1005
 
EGEC - Campbeltown, United Kingdom
Distance from station: SSE 129mi, 207km
Updated: 22/01/2018 11:20
Light rain, Partly cloudy
Light rain, Partly cloudy
 Wind from W
Wind: W 28 mph , 44 km/h
Temperature: 7°C
Wind Chill: 2°C
Dew Point: 6°C
Humidity: 93%
Barometer: 1006 hPa
Summary: Light rain
Clouds: Partly cloudy
Visibility: 3 miles , 5 km
Cloud details: Mostly cloudy 1067 m
Partly cloudy 1250 m
2018/01/22 11:20 EGEC 221120Z 27024KT 5000 -RA BKN035 SCT041 07/06 Q1006
EGPN - Dundee/Riverside, United Kingdom
Distance from station: ESE 137mi, 221km
Updated: 22/01/2018 11:20
Partly cloudy
Partly cloudy
 Wind from W
Wind: W 7 mph , 11 km/h
Temperature: 5°C
Wind Chill: 2°C
Dew Point: 3°C
Humidity: 87%
Barometer: 1002 hPa
Clouds: Partly cloudy
Visibility: 6 miles , 10 km
Cloud details: Few Clouds 762 m
Partly cloudy 1067 m
2018/01/22 11:20 EGPN 221120Z 28006KT 9999 FEW025 SCT035 05/03 Q1002
 
EGPK - Prestwick(Civ/Na, United Kingdom
Distance from station: SSE 139mi, 224km
Updated: 22/01/2018 11:20
Light rain, Mostly cloudy
Light rain, Mostly cloudy
 Wind from W
Wind: W 18 mph , 30 km/h
Temperature: 8°C
Wind Chill: 4°C
Dew Point: 6°C
Humidity: 87%
Barometer: 1006 hPa
Summary: Light rain
Clouds: Mostly cloudy
Visibility: 4 miles , 7 km
Cloud details: Few Clouds 305 m
Mostly cloudy 914 m
2018/01/22 11:20 EGPK 221120Z 27016KT 7000 -RA FEW010 BKN030 08/06 Q1006
EGQL - Leuchars Raf, United Kingdom
Distance from station: ESE 145mi, 233km
Updated: 22/01/2018 10:50
Clear
Clear
 Wind from W
Wind: W 12 mph , 19 km/h
Temperature: 5°C
Wind Chill: 1°C
Dew Point: 3°C
Humidity: 87%
Barometer: 1002 hPa
Summary: Clear
Visibility: greater than 7 miles , 10 km
2018/01/22 10:50 EGQL 221050Z 26010KT CAVOK 05/03 Q1002 BLU
 
EGPH - Edinburgh Airpor, United Kingdom
Distance from station: SE 145mi, 234km
Updated: 22/01/2018 11:20
Few Clouds
Few Clouds
 Wind from WSW
Wind: WSW 14 mph , 22 km/h
Temperature: 6°C
Wind Chill: 2°C
Dew Point: 4°C
Humidity: 87%
Barometer: 1004 hPa
Clouds: Few Clouds
Visibility: 6 miles , 10 km
Cloud details: Few Clouds 914 m
2018/01/22 11:20 EGPH 221120Z 24012KT 9999 FEW030 06/04 Q1004
EGPC - Wick, United Kingdom
Distance from station: NE 146mi, 234km
Updated: 22/01/2018 11:20
Partly cloudy
Partly cloudy
 Wind from WSW
Wind: WSW 14 mph , 22 km/h
Temperature: 6°C
Wind Chill: 2°C
Dew Point: 4°C
Humidity: 87%
Barometer: 996 hPa
Clouds: Partly cloudy
Visibility: 6 miles , 10 km
Cloud details: Few Clouds 457 m
Partly cloudy 914 m
2018/01/22 11:20 EGPC 221120Z 25012KT 9999 FEW015 SCT030 06/04 Q0996

-

free counters
QR Code Twitter Scottish Weather Network UK Weather Network
Argyll House B & B

Argyll House B & B is situated in North West Skye and is the perfect base to see all that the Isle of Skye has to offer.
Bookings been taken for 2018.